sensor_id;sensor_type;location;lat;lon;timestamp;P1;durP1;ratioP1;P2;durP2;ratioP2
49241;SDS011;35079;52.704;13.814;2022-07-01T00:01:01;13.07;;;11.77;;
49241;SDS011;35079;52.704;13.814;2022-07-01T00:03:26;12.02;;;10.82;;
49241;SDS011;35079;52.704;13.814;2022-07-01T00:08:48;12.90;;;11.60;;
49241;SDS011;35079;52.704;13.814;2022-07-01T00:11:24;13.63;;;11.55;;
49241;SDS011;35079;52.704;13.814;2022-07-01T00:17:09;13.48;;;11.45;;
49241;SDS011;35079;52.704;13.814;2022-07-01T00:19:59;12.52;;;11.23;;
49241;SDS011;35079;52.704;13.814;2022-07-01T00:26:37;13.13;;;11.82;;
49241;SDS011;35079;52.704;13.814;2022-07-01T00:33:28;14.52;;;12.40;;
49241;SDS011;35079;52.704;13.814;2022-07-01T00:36:33;13.05;;;11.68;;
49241;SDS011;35079;52.704;13.814;2022-07-01T00:39:08;14.93;;;13.38;;
49241;SDS011;35079;52.704;13.814;2022-07-01T00:55:42;15.65;;;14.07;;
49241;SDS011;35079;52.704;13.814;2022-07-01T01:04:50;15.90;;;14.18;;
49241;SDS011;35079;52.704;13.814;2022-07-01T01:13:06;18.20;;;15.15;;
49241;SDS011;35079;52.704;13.814;2022-07-01T01:15:46;17.00;;;15.20;;
49241;SDS011;35079;52.704;13.814;2022-07-01T01:20:47;20.30;;;15.38;;
49241;SDS011;35079;52.704;13.814;2022-07-01T01:23:32;17.95;;;15.73;;
49241;SDS011;35079;52.704;13.814;2022-07-01T01:26:00;16.10;;;14.38;;
49241;SDS011;35079;52.704;13.814;2022-07-01T01:31:34;18.27;;;15.65;;
49241;SDS011;35079;52.704;13.814;2022-07-01T01:34:41;17.60;;;14.75;;
49241;SDS011;35079;52.704;13.814;2022-07-01T01:37:28;17.60;;;15.32;;
49241;SDS011;35079;52.704;13.814;2022-07-01T01:40:14;17.88;;;15.35;;
49241;SDS011;35079;52.704;13.814;2022-07-01T01:42:44;20.63;;;15.25;;
49241;SDS011;35079;52.704;13.814;2022-07-01T01:45:11;17.85;;;15.88;;
49241;SDS011;35079;52.704;13.814;2022-07-01T01:47:38;21.73;;;17.10;;
49241;SDS011;35079;52.704;13.814;2022-07-01T01:50:31;19.92;;;17.55;;
49241;SDS011;35079;52.704;13.814;2022-07-01T01:52:57;20.83;;;17.50;;
49241;SDS011;35079;52.704;13.814;2022-07-01T01:55:23;20.45;;;17.20;;
49241;SDS011;35079;52.704;13.814;2022-07-01T02:00:40;17.95;;;16.13;;
49241;SDS011;35079;52.704;13.814;2022-07-01T02:03:29;20.58;;;17.67;;
49241;SDS011;35079;52.704;13.814;2022-07-01T02:05:57;20.00;;;17.88;;
49241;SDS011;35079;52.704;13.814;2022-07-01T02:08:23;20.98;;;17.58;;
49241;SDS011;35079;52.704;13.814;2022-07-01T02:13:40;20.75;;;18.23;;
49241;SDS011;35079;52.704;13.814;2022-07-01T02:16:11;21.33;;;17.60;;
49241;SDS011;35079;52.704;13.814;2022-07-01T02:21:45;20.85;;;18.75;;
49241;SDS011;35079;52.704;13.814;2022-07-01T02:24:32;21.85;;;18.75;;
49241;SDS011;35079;52.704;13.814;2022-07-01T02:26:57;24.83;;;20.30;;
49241;SDS011;35079;52.704;13.814;2022-07-01T02:29:26;24.02;;;19.70;;
49241;SDS011;35079;52.704;13.814;2022-07-01T02:31:52;26.60;;;20.65;;
49241;SDS011;35079;52.704;13.814;2022-07-01T02:34:24;23.42;;;19.85;;
49241;SDS011;35079;52.704;13.814;2022-07-01T02:36:49;25.15;;;20.02;;
49241;SDS011;35079;52.704;13.814;2022-07-01T02:44:51;28.95;;;22.13;;
49241;SDS011;35079;52.704;13.814;2022-07-01T02:47:19;23.88;;;21.33;;
49241;SDS011;35079;52.704;13.814;2022-07-01T02:49:46;25.77;;;22.15;;
49241;SDS011;35079;52.704;13.814;2022-07-01T02:59:17;29.02;;;24.23;;
49241;SDS011;35079;52.704;13.814;2022-07-01T03:16:02;33.92;;;23.48;;
49241;SDS011;35079;52.704;13.814;2022-07-01T03:25:44;32.88;;;25.20;;
49241;SDS011;35079;52.704;13.814;2022-07-01T03:28:10;36.97;;;29.30;;
49241;SDS011;35079;52.704;13.814;2022-07-01T03:33:18;32.90;;;26.13;;
49241;SDS011;35079;52.704;13.814;2022-07-01T03:38:42;34.53;;;27.20;;
49241;SDS011;35079;52.704;13.814;2022-07-01T03:41:11;28.58;;;23.40;;
49241;SDS011;35079;52.704;13.814;2022-07-01T03:46:13;32.28;;;24.75;;
49241;SDS011;35079;52.704;13.814;2022-07-01T03:48:39;28.35;;;24.50;;
49241;SDS011;35079;52.704;13.814;2022-07-01T03:51:05;32.63;;;25.50;;
49241;SDS011;35079;52.704;13.814;2022-07-01T03:53:37;31.63;;;26.77;;
49241;SDS011;35079;52.704;13.814;2022-07-01T03:56:21;30.75;;;23.98;;
49241;SDS011;35079;52.704;13.814;2022-07-01T03:58:53;30.52;;;25.80;;
49241;SDS011;35079;52.704;13.814;2022-07-01T04:01:22;29.95;;;24.45;;
49241;SDS011;35079;52.704;13.814;2022-07-01T04:03:47;30.63;;;25.05;;
49241;SDS011;35079;52.704;13.814;2022-07-01T04:06:16;29.15;;;24.50;;
49241;SDS011;35079;52.704;13.814;2022-07-01T04:08:42;31.10;;;26.00;;
49241;SDS011;35079;52.704;13.814;2022-07-01T04:11:11;27.27;;;23.90;;
49241;SDS011;35079;52.704;13.814;2022-07-01T04:13:37;26.55;;;22.30;;
49241;SDS011;35079;52.704;13.814;2022-07-01T04:16:04;25.67;;;22.13;;
49241;SDS011;35079;52.704;13.814;2022-07-01T04:18:30;23.65;;;21.10;;
49241;SDS011;35079;52.704;13.814;2022-07-01T04:20:56;29.67;;;24.35;;
49241;SDS011;35079;52.704;13.814;2022-07-01T04:23:48;26.52;;;23.65;;
49241;SDS011;35079;52.704;13.814;2022-07-01T04:26:15;27.77;;;22.45;;
49241;SDS011;35079;52.704;13.814;2022-07-01T04:28:41;26.55;;;22.33;;
49241;SDS011;35079;52.704;13.814;2022-07-01T04:31:07;24.90;;;20.45;;
49241;SDS011;35079;52.704;13.814;2022-07-01T04:33:33;24.85;;;20.95;;
49241;SDS011;35079;52.704;13.814;2022-07-01T04:35:59;29.10;;;22.50;;
49241;SDS011;35079;52.704;13.814;2022-07-01T04:38:24;23.35;;;19.75;;
49241;SDS011;35079;52.704;13.814;2022-07-01T04:40:50;23.92;;;21.35;;
49241;SDS011;35079;52.704;13.814;2022-07-01T04:43:34;25.70;;;21.17;;
49241;SDS011;35079;52.704;13.814;2022-07-01T04:46:00;26.30;;;20.98;;
49241;SDS011;35079;52.704;13.814;2022-07-01T04:48:25;23.85;;;19.38;;
49241;SDS011;35079;52.704;13.814;2022-07-01T04:50:51;22.77;;;19.52;;
49241;SDS011;35079;52.704;13.814;2022-07-01T04:53:16;23.17;;;20.50;;
49241;SDS011;35079;52.704;13.814;2022-07-01T04:55:42;24.77;;;19.95;;
49241;SDS011;35079;52.704;13.814;2022-07-01T04:58:07;23.20;;;19.42;;
49241;SDS011;35079;52.704;13.814;2022-07-01T05:00:33;25.20;;;20.70;;
49241;SDS011;35079;52.704;13.814;2022-07-01T05:02:59;23.67;;;19.58;;
49241;SDS011;35079;52.704;13.814;2022-07-01T05:05:24;24.63;;;20.75;;
49241;SDS011;35079;52.704;13.814;2022-07-01T05:07:50;23.42;;;19.75;;
49241;SDS011;35079;52.704;13.814;2022-07-01T05:10:16;22.15;;;19.75;;
49241;SDS011;35079;52.704;13.814;2022-07-01T05:12:41;24.30;;;20.65;;
49241;SDS011;35079;52.704;13.814;2022-07-01T05:15:07;23.60;;;19.88;;
49241;SDS011;35079;52.704;13.814;2022-07-01T05:17:34;21.65;;;19.48;;
49241;SDS011;35079;52.704;13.814;2022-07-01T05:20:18;23.37;;;19.10;;
49241;SDS011;35079;52.704;13.814;2022-07-01T05:23:02;18.45;;;16.63;;
49241;SDS011;35079;52.704;13.814;2022-07-01T05:25:29;19.92;;;17.85;;
49241;SDS011;35079;52.704;13.814;2022-07-01T05:27:54;21.67;;;19.38;;
49241;SDS011;35079;52.704;13.814;2022-07-01T05:30:21;23.13;;;18.63;;
49241;SDS011;35079;52.704;13.814;2022-07-01T05:32:47;21.75;;;18.73;;
49241;SDS011;35079;52.704;13.814;2022-07-01T05:35:12;22.10;;;19.13;;
49241;SDS011;35079;52.704;13.814;2022-07-01T05:37:39;20.75;;;18.45;;
49241;SDS011;35079;52.704;13.814;2022-07-01T05:40:05;19.27;;;16.83;;
49241;SDS011;35079;52.704;13.814;2022-07-01T05:42:31;20.00;;;18.00;;
49241;SDS011;35079;52.704;13.814;2022-07-01T05:44:57;24.08;;;20.58;;
49241;SDS011;35079;52.704;13.814;2022-07-01T05:47:22;20.48;;;18.38;;
49241;SDS011;35079;52.704;13.814;2022-07-01T05:49:48;21.50;;;19.25;;
49241;SDS011;35079;52.704;13.814;2022-07-01T05:52:14;20.15;;;18.05;;
49241;SDS011;35079;52.704;13.814;2022-07-01T05:54:39;23.15;;;18.27;;
49241;SDS011;35079;52.704;13.814;2022-07-01T05:57:05;19.63;;;17.10;;
49241;SDS011;35079;52.704;13.814;2022-07-01T05:59:30;19.92;;;17.80;;
49241;SDS011;35079;52.704;13.814;2022-07-01T06:01:56;21.67;;;16.90;;
49241;SDS011;35079;52.704;13.814;2022-07-01T06:04:22;19.50;;;17.30;;
49241;SDS011;35079;52.704;13.814;2022-07-01T06:06:47;18.58;;;16.73;;
49241;SDS011;35079;52.704;13.814;2022-07-01T06:09:13;17.80;;;15.43;;
49241;SDS011;35079;52.704;13.814;2022-07-01T06:11:38;19.15;;;15.63;;
49241;SDS011;35079;52.704;13.814;2022-07-01T06:14:04;17.13;;;15.35;;
49241;SDS011;35079;52.704;13.814;2022-07-01T06:16:29;17.45;;;14.48;;
49241;SDS011;35079;52.704;13.814;2022-07-01T06:18:55;17.85;;;13.77;;
49241;SDS011;35079;52.704;13.814;2022-07-01T06:21:21;16.67;;;14.43;;
49241;SDS011;35079;52.704;13.814;2022-07-01T06:23:46;18.08;;;14.93;;
49241;SDS011;35079;52.704;13.814;2022-07-01T06:26:12;16.95;;;14.93;;
49241;SDS011;35079;52.704;13.814;2022-07-01T06:28:38;17.50;;;15.57;;
49241;SDS011;35079;52.704;13.814;2022-07-01T06:31:03;16.00;;;14.40;;
49241;SDS011;35079;52.704;13.814;2022-07-01T06:33:29;16.70;;;14.32;;
49241;SDS011;35079;52.704;13.814;2022-07-01T06:35:56;16.88;;;13.98;;
49241;SDS011;35079;52.704;13.814;2022-07-01T06:38:22;16.90;;;14.13;;
49241;SDS011;35079;52.704;13.814;2022-07-01T06:40:49;17.08;;;13.63;;
49241;SDS011;35079;52.704;13.814;2022-07-01T06:43:33;12.95;;;11.43;;
49241;SDS011;35079;52.704;13.814;2022-07-01T06:45:59;14.45;;;12.95;;
49241;SDS011;35079;52.704;13.814;2022-07-01T06:48:25;15.48;;;13.45;;
49241;SDS011;35079;52.704;13.814;2022-07-01T06:50:51;15.32;;;12.25;;
49241;SDS011;35079;52.704;13.814;2022-07-01T06:53:16;15.13;;;13.63;;
49241;SDS011;35079;52.704;13.814;2022-07-01T06:55:42;13.70;;;11.93;;
49241;SDS011;35079;52.704;13.814;2022-07-01T06:58:07;13.27;;;11.02;;
49241;SDS011;35079;52.704;13.814;2022-07-01T07:00:34;16.30;;;12.00;;
49241;SDS011;35079;52.704;13.814;2022-07-01T07:03:01;12.20;;;10.77;;
49241;SDS011;35079;52.704;13.814;2022-07-01T07:05:26;12.02;;;10.10;;
49241;SDS011;35079;52.704;13.814;2022-07-01T07:07:55;12.70;;;10.80;;
49241;SDS011;35079;52.704;13.814;2022-07-01T07:10:20;13.30;;;11.63;;
49241;SDS011;35079;52.704;13.814;2022-07-01T07:12:46;12.30;;;11.02;;
49241;SDS011;35079;52.704;13.814;2022-07-01T07:15:12;13.23;;;11.90;;
49241;SDS011;35079;52.704;13.814;2022-07-01T07:17:38;13.90;;;12.35;;
49241;SDS011;35079;52.704;13.814;2022-07-01T07:20:03;14.27;;;12.02;;
49241;SDS011;35079;52.704;13.814;2022-07-01T07:22:30;13.65;;;12.32;;
49241;SDS011;35079;52.704;13.814;2022-07-01T07:24:55;17.02;;;13.25;;
49241;SDS011;35079;52.704;13.814;2022-07-01T07:27:21;15.32;;;11.35;;
49241;SDS011;35079;52.704;13.814;2022-07-01T07:29:46;14.65;;;12.50;;
49241;SDS011;35079;52.704;13.814;2022-07-01T07:32:12;13.32;;;10.95;;
49241;SDS011;35079;52.704;13.814;2022-07-01T07:34:38;14.90;;;12.98;;
49241;SDS011;35079;52.704;13.814;2022-07-01T07:37:03;18.85;;;13.75;;
49241;SDS011;35079;52.704;13.814;2022-07-01T07:39:29;14.60;;;12.80;;
49241;SDS011;35079;52.704;13.814;2022-07-01T07:41:55;17.00;;;13.38;;
49241;SDS011;35079;52.704;13.814;2022-07-01T07:44:21;14.60;;;12.27;;
49241;SDS011;35079;52.704;13.814;2022-07-01T07:46:46;15.20;;;12.30;;
49241;SDS011;35079;52.704;13.814;2022-07-01T07:49:12;14.13;;;12.63;;
49241;SDS011;35079;52.704;13.814;2022-07-01T07:51:37;14.35;;;12.40;;
49241;SDS011;35079;52.704;13.814;2022-07-01T07:54:03;16.10;;;13.18;;
49241;SDS011;35079;52.704;13.814;2022-07-01T07:56:29;14.00;;;12.52;;
49241;SDS011;35079;52.704;13.814;2022-07-01T07:58:55;16.27;;;12.90;;
49241;SDS011;35079;52.704;13.814;2022-07-01T08:01:22;19.25;;;15.55;;
49241;SDS011;35079;52.704;13.814;2022-07-01T08:03:47;17.00;;;15.23;;
49241;SDS011;35079;52.704;13.814;2022-07-01T08:06:13;19.35;;;15.52;;
49241;SDS011;35079;52.704;13.814;2022-07-01T08:08:39;17.08;;;14.85;;
49241;SDS011;35079;52.704;13.814;2022-07-01T08:11:04;17.35;;;15.55;;
49241;SDS011;35079;52.704;13.814;2022-07-01T08:13:30;21.25;;;16.88;;
49241;SDS011;35079;52.704;13.814;2022-07-01T08:15:56;19.75;;;17.85;;
49241;SDS011;35079;52.704;13.814;2022-07-01T08:18:22;19.65;;;17.65;;
49241;SDS011;35079;52.704;13.814;2022-07-01T08:20:48;21.52;;;17.67;;
49241;SDS011;35079;52.704;13.814;2022-07-01T08:23:18;19.45;;;17.55;;
49241;SDS011;35079;52.704;13.814;2022-07-01T08:25:47;16.88;;;15.18;;
49241;SDS011;35079;52.704;13.814;2022-07-01T08:28:13;18.25;;;16.15;;
49241;SDS011;35079;52.704;13.814;2022-07-01T08:30:39;18.88;;;16.92;;
49241;SDS011;35079;52.704;13.814;2022-07-01T08:33:05;17.75;;;15.95;;
49241;SDS011;35079;52.704;13.814;2022-07-01T08:35:31;19.35;;;17.35;;
49241;SDS011;35079;52.704;13.814;2022-07-01T08:37:56;19.05;;;16.98;;
49241;SDS011;35079;52.704;13.814;2022-07-01T08:40:30;20.20;;;18.10;;
49241;SDS011;35079;52.704;13.814;2022-07-01T08:42:57;23.95;;;17.27;;
49241;SDS011;35079;52.704;13.814;2022-07-01T08:45:28;18.77;;;16.88;;
49241;SDS011;35079;52.704;13.814;2022-07-01T08:47:57;18.08;;;16.17;;
49241;SDS011;35079;52.704;13.814;2022-07-01T08:50:26;20.20;;;17.15;;
49241;SDS011;35079;52.704;13.814;2022-07-01T08:52:52;18.58;;;16.55;;
49241;SDS011;35079;52.704;13.814;2022-07-01T08:55:19;18.27;;;16.40;;
49241;SDS011;35079;52.704;13.814;2022-07-01T08:57:45;18.67;;;16.75;;
49241;SDS011;35079;52.704;13.814;2022-07-01T09:00:12;19.42;;;17.23;;
49241;SDS011;35079;52.704;13.814;2022-07-01T09:02:57;19.15;;;17.20;;
49241;SDS011;35079;52.704;13.814;2022-07-01T09:05:25;17.58;;;15.70;;
49241;SDS011;35079;52.704;13.814;2022-07-01T09:07:55;16.10;;;14.40;;
49241;SDS011;35079;52.704;13.814;2022-07-01T09:10:28;14.38;;;12.82;;
49241;SDS011;35079;52.704;13.814;2022-07-01T09:13:05;16.45;;;14.65;;
49241;SDS011;35079;52.704;13.814;2022-07-01T09:15:32;16.10;;;14.60;;
49241;SDS011;35079;52.704;13.814;2022-07-01T09:18:05;16.95;;;15.20;;
49241;SDS011;35079;52.704;13.814;2022-07-01T09:20:36;19.65;;;14.77;;
49241;SDS011;35079;52.704;13.814;2022-07-01T09:23:08;19.23;;;15.82;;
49241;SDS011;35079;52.704;13.814;2022-07-01T09:25:40;14.02;;;12.60;;
49241;SDS011;35079;52.704;13.814;2022-07-01T09:30:45;13.80;;;12.43;;
49241;SDS011;35079;52.704;13.814;2022-07-01T09:35:45;18.10;;;16.20;;
49241;SDS011;35079;52.704;13.814;2022-07-01T09:38:13;18.58;;;16.52;;
49241;SDS011;35079;52.704;13.814;2022-07-01T09:43:18;17.17;;;15.48;;
49241;SDS011;35079;52.704;13.814;2022-07-01T09:45:51;19.48;;;16.75;;
49241;SDS011;35079;52.704;13.814;2022-07-01T09:50:57;18.48;;;16.48;;
49241;SDS011;35079;52.704;13.814;2022-07-01T09:53:24;18.20;;;16.23;;
49241;SDS011;35079;52.704;13.814;2022-07-01T09:55:50;18.48;;;16.45;;
49241;SDS011;35079;52.704;13.814;2022-07-01T09:58:15;18.45;;;16.63;;
49241;SDS011;35079;52.704;13.814;2022-07-01T10:00:42;19.38;;;17.20;;
49241;SDS011;35079;52.704;13.814;2022-07-01T10:03:08;19.98;;;16.60;;
49241;SDS011;35079;52.704;13.814;2022-07-01T10:05:37;18.27;;;15.43;;
49241;SDS011;35079;52.704;13.814;2022-07-01T10:08:32;20.05;;;16.42;;
49241;SDS011;35079;52.704;13.814;2022-07-01T10:14:08;19.85;;;15.98;;
49241;SDS011;35079;52.704;13.814;2022-07-01T10:16:35;17.70;;;14.82;;
49241;SDS011;35079;52.704;13.814;2022-07-01T10:21:47;14.45;;;12.88;;
49241;SDS011;35079;52.704;13.814;2022-07-01T10:24:13;19.15;;;12.25;;
49241;SDS011;35079;52.704;13.814;2022-07-01T10:26:41;19.63;;;10.40;;
49241;SDS011;35079;52.704;13.814;2022-07-01T10:32:06;10.63;;;6.20;;
49241;SDS011;35079;52.704;13.814;2022-07-01T10:34:41;14.45;;;4.55;;
49241;SDS011;35079;52.704;13.814;2022-07-01T10:37:08;7.10;;;4.50;;
49241;SDS011;35079;52.704;13.814;2022-07-01T10:42:20;5.88;;;2.90;;
49241;SDS011;35079;52.704;13.814;2022-07-01T10:45:02;6.03;;;3.38;;
49241;SDS011;35079;52.704;13.814;2022-07-01T10:47:36;8.98;;;3.00;;
49241;SDS011;35079;52.704;13.814;2022-07-01T10:50:10;8.73;;;3.60;;
49241;SDS011;35079;52.704;13.814;2022-07-01T10:53:02;6.43;;;3.22;;
49241;SDS011;35079;52.704;13.814;2022-07-01T10:55:36;7.32;;;3.08;;
49241;SDS011;35079;52.704;13.814;2022-07-01T10:58:38;5.15;;;2.65;;
49241;SDS011;35079;52.704;13.814;2022-07-01T11:01:04;3.88;;;2.58;;
49241;SDS011;35079;52.704;13.814;2022-07-01T11:03:33;4.65;;;2.53;;
49241;SDS011;35079;52.704;13.814;2022-07-01T11:06:01;9.02;;;2.00;;
49241;SDS011;35079;52.704;13.814;2022-07-01T11:08:27;8.05;;;1.52;;
49241;SDS011;35079;52.704;13.814;2022-07-01T11:10:56;4.32;;;1.40;;
49241;SDS011;35079;52.704;13.814;2022-07-01T11:13:24;5.03;;;1.75;;
49241;SDS011;35079;52.704;13.814;2022-07-01T11:15:51;3.03;;;1.35;;
49241;SDS011;35079;52.704;13.814;2022-07-01T11:18:17;2.85;;;1.40;;
49241;SDS011;35079;52.704;13.814;2022-07-01T11:20:44;2.78;;;1.33;;
49241;SDS011;35079;52.704;13.814;2022-07-01T11:23:10;2.20;;;1.50;;
49241;SDS011;35079;52.704;13.814;2022-07-01T11:25:36;2.00;;;1.33;;
49241;SDS011;35079;52.704;13.814;2022-07-01T11:28:02;1.77;;;1.30;;
49241;SDS011;35079;52.704;13.814;2022-07-01T11:30:28;6.20;;;1.40;;
49241;SDS011;35079;52.704;13.814;2022-07-01T11:32:57;1.90;;;1.40;;
49241;SDS011;35079;52.704;13.814;2022-07-01T11:35:28;2.65;;;1.45;;
49241;SDS011;35079;52.704;13.814;2022-07-01T11:41:04;2.78;;;1.33;;
49241;SDS011;35079;52.704;13.814;2022-07-01T11:43:35;6.65;;;1.45;;
49241;SDS011;35079;52.704;13.814;2022-07-01T11:46:03;2.75;;;1.35;;
49241;SDS011;35079;52.704;13.814;2022-07-01T11:48:32;3.70;;;1.17;;
49241;SDS011;35079;52.704;13.814;2022-07-01T11:51:16;2.65;;;1.35;;
49241;SDS011;35079;52.704;13.814;2022-07-01T11:53:48;2.67;;;1.40;;
49241;SDS011;35079;52.704;13.814;2022-07-01T11:56:15;1.05;;;0.95;;
49241;SDS011;35079;52.704;13.814;2022-07-01T11:58:49;2.95;;;1.13;;
49241;SDS011;35079;52.704;13.814;2022-07-01T12:01:29;1.88;;;0.80;;
49241;SDS011;35079;52.704;13.814;2022-07-01T12:04:00;1.55;;;0.90;;
49241;SDS011;35079;52.704;13.814;2022-07-01T12:06:27;1.80;;;0.85;;
49241;SDS011;35079;52.704;13.814;2022-07-01T12:08:54;0.70;;;0.70;;
49241;SDS011;35079;52.704;13.814;2022-07-01T12:11:22;1.30;;;0.82;;
49241;SDS011;35079;52.704;13.814;2022-07-01T12:13:48;1.58;;;0.77;;
49241;SDS011;35079;52.704;13.814;2022-07-01T12:16:15;1.15;;;0.70;;
49241;SDS011;35079;52.704;13.814;2022-07-01T12:18:51;0.68;;;0.68;;
49241;SDS011;35079;52.704;13.814;2022-07-01T12:21:26;0.75;;;0.73;;
49241;SDS011;35079;52.704;13.814;2022-07-01T12:24:05;0.55;;;0.55;;
49241;SDS011;35079;52.704;13.814;2022-07-01T12:26:31;0.93;;;0.50;;
49241;SDS011;35079;52.704;13.814;2022-07-01T12:28:57;0.50;;;0.50;;
49241;SDS011;35079;52.704;13.814;2022-07-01T12:31:23;0.50;;;0.50;;
49241;SDS011;35079;52.704;13.814;2022-07-01T12:33:49;0.70;;;0.40;;
49241;SDS011;35079;52.704;13.814;2022-07-01T12:36:16;0.40;;;0.30;;
49241;SDS011;35079;52.704;13.814;2022-07-01T12:38:42;2.22;;;0.32;;
49241;SDS011;35079;52.704;13.814;2022-07-01T12:41:28;0.30;;;0.30;;
49241;SDS011;35079;52.704;13.814;2022-07-01T12:44:05;0.30;;;0.30;;
49241;SDS011;35079;52.704;13.814;2022-07-01T12:46:44;1.33;;;0.40;;
49241;SDS011;35079;52.704;13.814;2022-07-01T12:49:17;0.30;;;0.30;;
49241;SDS011;35079;52.704;13.814;2022-07-01T12:51:44;0.32;;;0.30;;
49241;SDS011;35079;52.704;13.814;2022-07-01T12:54:27;0.30;;;0.30;;
49241;SDS011;35079;52.704;13.814;2022-07-01T12:56:57;0.63;;;0.50;;
49241;SDS011;35079;52.704;13.814;2022-07-01T12:59:23;0.30;;;0.30;;
49241;SDS011;35079;52.704;13.814;2022-07-01T13:01:48;0.60;;;0.40;;
49241;SDS011;35079;52.704;13.814;2022-07-01T13:04:23;0.73;;;0.60;;
49241;SDS011;35079;52.704;13.814;2022-07-01T13:06:52;0.30;;;0.30;;
49241;SDS011;35079;52.704;13.814;2022-07-01T13:09:18;0.90;;;0.32;;
49241;SDS011;35079;52.704;13.814;2022-07-01T13:11:44;0.35;;;0.35;;
49241;SDS011;35079;52.704;13.814;2022-07-01T13:14:10;0.45;;;0.40;;
49241;SDS011;35079;52.704;13.814;2022-07-01T13:16:36;0.40;;;0.40;;
49241;SDS011;35079;52.704;13.814;2022-07-01T13:19:02;2.15;;;0.50;;
49241;SDS011;35079;52.704;13.814;2022-07-01T13:21:28;0.50;;;0.50;;
49241;SDS011;35079;52.704;13.814;2022-07-01T13:23:54;1.23;;;0.50;;
49241;SDS011;35079;52.704;13.814;2022-07-01T13:26:20;0.35;;;0.30;;
49241;SDS011;35079;52.704;13.814;2022-07-01T13:28:45;0.30;;;0.30;;
49241;SDS011;35079;52.704;13.814;2022-07-01T13:31:11;1.77;;;0.55;;
49241;SDS011;35079;52.704;13.814;2022-07-01T13:33:37;0.60;;;0.50;;
49241;SDS011;35079;52.704;13.814;2022-07-01T13:36:03;1.02;;;0.60;;
49241;SDS011;35079;52.704;13.814;2022-07-01T13:38:30;0.68;;;0.32;;
49241;SDS011;35079;52.704;13.814;2022-07-01T13:40:55;0.85;;;0.50;;
49241;SDS011;35079;52.704;13.814;2022-07-01T13:43:21;0.85;;;0.50;;
49241;SDS011;35079;52.704;13.814;2022-07-01T13:45:46;0.40;;;0.40;;
49241;SDS011;35079;52.704;13.814;2022-07-01T13:48:12;0.90;;;0.50;;
49241;SDS011;35079;52.704;13.814;2022-07-01T13:50:38;1.98;;;0.60;;
49241;SDS011;35079;52.704;13.814;2022-07-01T13:53:04;1.00;;;0.50;;
49241;SDS011;35079;52.704;13.814;2022-07-01T13:55:30;1.33;;;0.60;;
49241;SDS011;35079;52.704;13.814;2022-07-01T13:57:55;0.50;;;0.50;;
49241;SDS011;35079;52.704;13.814;2022-07-01T14:00:21;0.63;;;0.63;;
49241;SDS011;35079;52.704;13.814;2022-07-01T14:02:46;0.70;;;0.70;;
49241;SDS011;35079;52.704;13.814;2022-07-01T14:05:12;0.60;;;0.60;;
49241;SDS011;35079;52.704;13.814;2022-07-01T14:07:38;0.70;;;0.70;;
49241;SDS011;35079;52.704;13.814;2022-07-01T14:10:04;0.68;;;0.65;;
49241;SDS011;35079;52.704;13.814;2022-07-01T14:12:31;1.27;;;0.85;;
49241;SDS011;35079;52.704;13.814;2022-07-01T14:14:56;0.65;;;0.65;;
49241;SDS011;35079;52.704;13.814;2022-07-01T14:17:23;0.90;;;0.90;;
49241;SDS011;35079;52.704;13.814;2022-07-01T14:19:49;1.10;;;1.00;;
49241;SDS011;35079;52.704;13.814;2022-07-01T14:22:15;0.82;;;0.82;;
49241;SDS011;35079;52.704;13.814;2022-07-01T14:24:41;2.75;;;1.80;;
49241;SDS011;35079;52.704;13.814;2022-07-01T14:27:15;2.33;;;2.17;;
49241;SDS011;35079;52.704;13.814;2022-07-01T14:29:41;2.25;;;2.05;;
49241;SDS011;35079;52.704;13.814;2022-07-01T14:32:07;3.92;;;2.53;;
49241;SDS011;35079;52.704;13.814;2022-07-01T14:34:33;3.75;;;2.55;;
49241;SDS011;35079;52.704;13.814;2022-07-01T14:36:59;3.70;;;3.38;;
49241;SDS011;35079;52.704;13.814;2022-07-01T14:39:28;3.08;;;2.88;;
49241;SDS011;35079;52.704;13.814;2022-07-01T14:55:50;3.42;;;3.08;;
49241;SDS011;35079;52.704;13.814;2022-07-01T14:58:31;3.80;;;3.25;;
49241;SDS011;35079;52.704;13.814;2022-07-01T15:01:04;3.78;;;3.42;;
49241;SDS011;35079;52.704;13.814;2022-07-01T15:03:42;3.03;;;2.78;;
49241;SDS011;35079;52.704;13.814;2022-07-01T15:06:18;2.22;;;2.13;;
49241;SDS011;35079;52.704;13.814;2022-07-01T15:11:34;2.95;;;2.65;;
49241;SDS011;35079;52.704;13.814;2022-07-01T15:14:00;5.15;;;2.90;;
49241;SDS011;35079;52.704;13.814;2022-07-01T15:16:46;2.92;;;2.72;;
49241;SDS011;35079;52.704;13.814;2022-07-01T15:19:12;3.25;;;2.78;;
49241;SDS011;35079;52.704;13.814;2022-07-01T15:21:37;2.63;;;2.42;;
49241;SDS011;35079;52.704;13.814;2022-07-01T15:24:03;2.80;;;2.50;;
49241;SDS011;35079;52.704;13.814;2022-07-01T15:26:30;2.47;;;2.28;;
49241;SDS011;35079;52.704;13.814;2022-07-01T15:28:55;3.63;;;2.88;;
49241;SDS011;35079;52.704;13.814;2022-07-01T15:31:21;2.33;;;2.13;;
49241;SDS011;35079;52.704;13.814;2022-07-01T15:33:47;2.35;;;2.25;;
49241;SDS011;35079;52.704;13.814;2022-07-01T15:36:13;2.40;;;2.20;;
49241;SDS011;35079;52.704;13.814;2022-07-01T15:38:39;2.80;;;2.60;;
49241;SDS011;35079;52.704;13.814;2022-07-01T15:41:09;2.13;;;1.92;;
49241;SDS011;35079;52.704;13.814;2022-07-01T15:43:37;2.22;;;2.03;;
49241;SDS011;35079;52.704;13.814;2022-07-01T15:46:06;2.65;;;2.20;;
49241;SDS011;35079;52.704;13.814;2022-07-01T15:48:32;2.50;;;2.30;;
49241;SDS011;35079;52.704;13.814;2022-07-01T15:50:58;2.13;;;1.92;;
49241;SDS011;35079;52.704;13.814;2022-07-01T15:53:24;2.95;;;2.10;;
49241;SDS011;35079;52.704;13.814;2022-07-01T15:55:50;2.10;;;2.00;;
49241;SDS011;35079;52.704;13.814;2022-07-01T15:58:16;2.25;;;2.05;;
49241;SDS011;35079;52.704;13.814;2022-07-01T16:00:44;2.38;;;2.15;;
49241;SDS011;35079;52.704;13.814;2022-07-01T16:03:12;2.28;;;2.00;;
49241;SDS011;35079;52.704;13.814;2022-07-01T16:05:39;1.92;;;1.83;;
49241;SDS011;35079;52.704;13.814;2022-07-01T16:08:10;2.58;;;1.80;;
49241;SDS011;35079;52.704;13.814;2022-07-01T16:13:09;2.33;;;2.10;;
49241;SDS011;35079;52.704;13.814;2022-07-01T16:15:40;3.58;;;1.88;;
49241;SDS011;35079;52.704;13.814;2022-07-01T16:18:09;1.90;;;1.80;;
49241;SDS011;35079;52.704;13.814;2022-07-01T16:20:38;1.85;;;1.75;;
49241;SDS011;35079;52.704;13.814;2022-07-01T16:23:05;1.65;;;1.55;;
49241;SDS011;35079;52.704;13.814;2022-07-01T16:25:31;1.90;;;1.75;;
49241;SDS011;35079;52.704;13.814;2022-07-01T16:27:59;1.67;;;1.58;;
49241;SDS011;35079;52.704;13.814;2022-07-01T16:30:25;2.05;;;1.70;;
49241;SDS011;35079;52.704;13.814;2022-07-01T16:32:53;3.08;;;1.55;;
49241;SDS011;35079;52.704;13.814;2022-07-01T16:35:20;1.63;;;1.52;;
49241;SDS011;35079;52.704;13.814;2022-07-01T16:37:48;1.98;;;1.73;;
49241;SDS011;35079;52.704;13.814;2022-07-01T16:40:27;2.65;;;1.50;;
49241;SDS011;35079;52.704;13.814;2022-07-01T16:42:58;1.42;;;1.33;;
49241;SDS011;35079;52.704;13.814;2022-07-01T16:45:30;1.77;;;1.67;;
49241;SDS011;35079;52.704;13.814;2022-07-01T16:48:00;1.48;;;1.38;;
49241;SDS011;35079;52.704;13.814;2022-07-01T16:50:28;1.67;;;1.58;;